Главная страница
METAR-TAF:

METAR-TAF

Аэропорты :

Международный аэропорт имени Кеннета Каунды

Лусака, Замбия

широта: 15-19-51S, долгота: 028-27-09E, высота над уровнем моря: 1152 м

Текущие метеонаблюдения

Эта сводка был подготовлена 3 часа и 50 минут назад, в 21:00 UTC
Ветер 6 Узел от восточно-юго-восточный
Температура 19°C
Влажность 40%
Давление 1020 hPa
Видимость: 9000 м

METAR: FLKK 242100Z 12006KT 9000 NSC 19/05 Q1020

Время: 02:50 (00:50 UTC)


TAF: отсутствует

Метеонаблюдения и прогнозы для более 4000 аэропортов (сводки METAR и TAF).

Имеющиеся станции представлены на карте желтыми и красными точками.

Чтобы увидеть название станции, наведите на нее мышь.

Затем щелкните, чтобы увидеть метеонаблюдения и метеопрогнозы.

Управление картой: чтобы увеличить масштаб, щелкните зеленые кнопки с черным крестиком; чтобы уменьшить масштаб, щелкните зеленую кнопку с тире; для просмотра соседних карт щелкайте зеленые стрелки.


METAR-TAF: